Time;durP1;ratioP1;P1;durP2;ratioP2;P2;SDS_P1;SDS_P2;PMS_P1;PMS_P2;Temp;Humidity;BMP_temperature;BMP_pressure;BME280_temperature;BME280_humidity;BME280_pressure;Samples;Min_cycle;Max_cycle;Signal;HPM_P1;HPM_P2
2020/12/14 00:02:17;;;;;;;45.85;6.13;;;12.90;99.90;;;;;;5058298;28;20451;-88
2020/12/14 00:04:49;;;;;;;41.03;5.30;;;12.90;99.90;;;;;;5058415;28;20105;-89
2020/12/14 00:07:25;;;;;;;51.63;6.15;;;12.80;99.90;;;;;;5060460;28;20056;-89
2020/12/14 00:10:01;;;;;;;46.17;6.50;;;12.90;99.90;;;;;;5071988;28;20072;-89
2020/12/14 00:12:35;;;;;;;48.25;6.32;;;12.90;99.90;;;;;;5056731;28;20080;-89
2020/12/14 00:15:09;;;;;;;43.25;6.40;;;12.90;99.90;;;;;;5056951;28;20061;-88
2020/12/14 00:17:46;;;;;;;54.20;7.57;;;12.90;99.90;;;;;;5059267;28;20408;-88
2020/12/14 00:20:17;;;;;;;47.65;6.18;;;12.90;99.90;;;;;;5056664;28;20064;-88
2020/12/14 00:22:49;;;;;;;45.40;7.50;;;12.90;99.90;;;;;;5070234;28;20104;-88
2020/12/14 00:25:23;;;;;;;19.77;3.38;;;12.90;99.90;;;;;;5065912;28;20083;-87
2020/12/14 00:27:56;;;;;;;13.55;2.15;;;12.60;99.90;;;;;;5056434;28;20053;-87
2020/12/14 00:30:28;;;;;;;16.40;2.20;;;12.30;99.90;;;;;;5058549;28;20044;-87
2020/12/14 00:32:58;;;;;;;11.98;2.53;;;12.00;99.90;;;;;;5070187;28;20052;-88
2020/12/14 00:35:28;;;;;;;14.13;2.22;;;11.90;99.90;;;;;;5071907;28;20450;-88
2020/12/14 00:38:01;;;;;;;23.55;2.25;;;11.80;99.90;;;;;;5058545;28;20044;-87
2020/12/14 00:40:31;;;;;;;18.75;3.88;;;11.70;99.90;;;;;;5056972;28;20057;-87
2020/12/14 00:43:01;;;;;;;24.83;3.03;;;11.60;99.90;;;;;;5061563;28;20045;-87
2020/12/14 00:45:32;;;;;;;24.48;3.33;;;11.50;99.90;;;;;;5072489;28;20054;-88
2020/12/14 00:48:07;;;;;;;31.77;3.40;;;11.40;99.90;;;;;;5073172;28;26474;-87
2020/12/14 00:50:38;;;;;;;25.90;3.53;;;11.40;99.90;;;;;;5070771;28;20048;-88
2020/12/14 00:53:09;;;;;;;29.70;3.85;;;11.40;99.90;;;;;;5067494;28;20148;-88
2020/12/14 00:55:41;;;;;;;28.05;3.97;;;11.40;99.90;;;;;;5065753;28;20044;-88
2020/12/14 00:58:16;;;;;;;25.98;4.20;;;11.40;99.90;;;;;;5062610;28;20056;-88
2020/12/14 01:00:52;;;;;;;39.40;4.30;;;11.40;99.90;;;;;;5065951;28;20053;-88
2020/12/14 01:03:25;;;;;;;37.15;4.53;;;11.40;99.90;;;;;;5070525;28;20437;-88
2020/12/14 01:05:59;;;;;;;36.92;4.63;;;11.40;99.90;;;;;;5069409;28;20058;-88
2020/12/14 01:08:30;;;;;;;24.02;3.90;;;11.40;99.90;;;;;;5072907;28;20052;-88
2020/12/14 01:11:01;;;;;;;28.67;4.15;;;11.40;99.90;;;;;;5074107;28;20041;-88
2020/12/14 01:13:33;;;;;;;33.28;4.38;;;11.50;99.90;;;;;;5071878;28;20055;-89
2020/12/14 01:16:12;;;;;;;35.90;5.05;;;11.50;99.90;;;;;;5066431;28;20052;-88
2020/12/14 01:18:43;;;;;;;39.33;5.15;;;11.50;99.90;;;;;;5073258;28;20099;-89
2020/12/14 01:21:21;;;;;;;41.00;5.03;;;11.50;99.90;;;;;;5046856;28;20063;-87
2020/12/14 01:23:55;;;;;;;37.97;4.80;;;11.60;99.90;;;;;;5074423;28;20109;-88
2020/12/14 01:26:26;;;;;;;49.30;5.78;;;11.50;99.90;;;;;;5067856;28;20067;-89
2020/12/14 01:29:00;;;;;;;47.47;6.57;;;11.60;99.90;;;;;;5062771;28;20049;-89
2020/12/14 01:31:35;;;;;;;52.30;7.88;;;11.60;99.90;;;;;;5066260;28;20049;-89
2020/12/14 01:34:08;;;;;;;60.40;8.50;;;11.70;99.90;;;;;;5071449;28;20059;-89
2020/12/14 01:36:42;;;;;;;65.75;8.13;;;11.70;99.90;;;;;;5047636;28;20067;-89
2020/12/14 01:39:14;;;;;;;52.83;6.95;;;11.80;99.90;;;;;;5069327;28;20052;-88
2020/12/14 01:41:52;;;;;;;59.50;7.88;;;11.80;99.90;;;;;;5032853;28;20048;-89
2020/12/14 01:44:25;;;;;;;56.78;6.90;;;11.80;99.90;;;;;;5041136;28;20068;-89
2020/12/14 01:47:02;;;;;;;60.90;7.93;;;11.80;99.90;;;;;;5040653;28;20055;-89
2020/12/14 01:49:35;;;;;;;49.05;7.05;;;11.80;99.90;;;;;;5038621;28;20071;-89
2020/12/14 01:52:09;;;;;;;48.85;6.53;;;11.80;99.90;;;;;;5038782;28;20053;-89
2020/12/14 01:54:42;;;;;;;61.45;7.22;;;11.80;99.90;;;;;;5040696;28;20440;-89
2020/12/14 01:57:20;;;;;;;51.30;7.60;;;11.80;99.90;;;;;;5037685;28;20053;-89
2020/12/14 01:59:58;;;;;;;56.53;7.88;;;11.70;99.90;;;;;;5039723;28;20053;-89
2020/12/14 02:02:28;;;;;;;55.17;8.05;;;11.70;99.90;;;;;;5039114;28;20061;-88
2020/12/14 02:04:59;;;;;;;60.30;7.82;;;11.70;99.90;;;;;;5036221;28;20049;-88
2020/12/14 02:07:37;;;;;;;59.03;8.10;;;11.70;99.90;;;;;;5038122;28;20119;-88
2020/12/14 02:10:11;;;;;;;49.90;6.70;;;11.70;99.90;;;;;;5038622;28;20109;-88
2020/12/14 02:12:51;;;;;;;57.17;8.23;;;11.70;99.90;;;;;;5037420;28;20045;-88
2020/12/14 02:15:25;;;;;;;57.45;8.00;;;11.70;99.90;;;;;;5025654;28;20076;-88
2020/12/14 02:17:58;;;;;;;61.13;8.32;;;11.70;99.90;;;;;;5030355;28;20497;-89
2020/12/14 02:20:34;;;;;;;58.50;7.07;;;11.70;99.90;;;;;;5032460;28;20054;-88
2020/12/14 02:23:07;;;;;;;54.92;7.32;;;11.70;99.90;;;;;;5026539;28;20398;-88
2020/12/14 02:25:39;;;;;;;57.65;7.95;;;11.80;99.90;;;;;;5018050;28;20045;-88
2020/12/14 02:28:12;;;;;;;54.10;7.97;;;11.80;99.90;;;;;;5038337;28;20056;-88
2020/12/14 02:30:43;;;;;;;54.72;6.75;;;11.80;99.90;;;;;;5038056;28;20049;-89
2020/12/14 02:33:18;;;;;;;52.38;7.60;;;11.80;99.90;;;;;;5038119;28;20041;-88
2020/12/14 02:35:54;;;;;;;59.55;7.38;;;11.80;99.90;;;;;;5038822;28;20052;-89
2020/12/14 02:38:29;;;;;;;50.85;7.13;;;11.80;99.90;;;;;;5039143;28;20188;-88
2020/12/14 02:41:05;;;;;;;58.33;8.38;;;11.80;99.90;;;;;;5036237;28;20096;-89
2020/12/14 02:43:41;;;;;;;53.80;7.05;;;11.80;99.90;;;;;;5032125;28;20045;-88
2020/12/14 02:46:14;;;;;;;60.20;7.77;;;11.80;99.90;;;;;;5036419;28;20048;-88
2020/12/14 02:48:48;;;;;;;67.93;8.43;;;11.80;99.90;;;;;;5037175;28;20045;-88
2020/12/14 02:51:21;;;;;;;52.55;7.03;;;11.80;99.90;;;;;;5024935;28;20045;-88
2020/12/14 02:53:54;;;;;;;48.65;7.03;;;11.70;99.90;;;;;;5037194;28;20052;-88
2020/12/14 02:56:25;;;;;;;55.95;7.65;;;11.70;99.90;;;;;;5036510;28;20076;-89
2020/12/14 02:59:01;;;;;;;59.60;7.55;;;11.70;99.90;;;;;;5039496;28;20107;-89
2020/12/14 03:01:34;;;;;;;58.55;7.10;;;11.60;99.90;;;;;;5031178;28;20052;-89
2020/12/14 03:04:07;;;;;;;50.58;6.57;;;11.60;99.90;;;;;;5033055;28;20053;-89
2020/12/14 03:06:51;;;;;;;52.88;7.13;;;11.60;99.90;;;;;;5027689;28;20072;-89
2020/12/14 03:09:28;;;;;;;53.63;7.47;;;11.60;99.90;;;;;;5025658;28;20124;-89
2020/12/14 03:12:06;;;;;;;48.60;7.32;;;11.50;99.90;;;;;;5037849;28;20045;-89
2020/12/14 03:14:39;;;;;;;42.47;5.82;;;11.50;99.90;;;;;;5041512;28;20067;-88
2020/12/14 03:17:12;;;;;;;49.35;6.78;;;11.50;99.90;;;;;;5026450;28;20053;-88
2020/12/14 03:19:47;;;;;;;45.05;6.55;;;11.50;99.90;;;;;;5032592;28;20045;-88
2020/12/14 03:22:20;;;;;;;53.47;7.25;;;11.40;99.90;;;;;;5036977;28;20059;-89
2020/12/14 03:24:54;;;;;;;47.55;6.30;;;11.40;99.90;;;;;;5034866;28;20058;-88
2020/12/14 03:27:29;;;;;;;49.83;7.30;;;11.40;99.90;;;;;;5038989;28;20067;-89
2020/12/14 03:30:05;;;;;;;48.70;8.38;;;11.40;99.90;;;;;;5023601;28;20536;-89
2020/12/14 03:32:37;;;;;;;50.28;7.05;;;11.40;99.90;;;;;;5026997;28;20087;-89
2020/12/14 03:35:12;;;;;;;51.00;6.85;;;11.40;99.90;;;;;;5036284;28;20053;-89
2020/12/14 03:37:47;;;;;;;;;;;11.30;99.90;;;;;;5030857;28;20072;-88
2020/12/14 03:40:25;;;;;;;60.47;7.43;;;11.30;99.90;;;;;;5044436;28;19925;-89
2020/12/14 03:43:00;;;;;;;63.05;7.05;;;11.30;99.90;;;;;;5069913;28;20505;-89
2020/12/14 03:45:41;;;;;;;49.28;6.93;;;11.20;99.90;;;;;;5059848;28;20060;-89
2020/12/14 03:48:17;;;;;;;58.30;7.82;;;11.30;99.90;;;;;;5072513;28;20049;-89
2020/12/14 03:50:51;;;;;;;53.10;7.55;;;11.20;99.90;;;;;;5055918;28;20045;-89
2020/12/14 03:53:26;;;;;;;57.80;7.65;;;11.20;99.90;;;;;;5057163;28;20059;-89
2020/12/14 03:56:01;;;;;;;58.42;7.28;;;11.20;99.90;;;;;;5065594;28;20044;-89
2020/12/14 03:58:35;;;;;;;62.65;7.88;;;11.20;99.90;;;;;;5073085;28;20063;-89
2020/12/14 04:01:12;;;;;;;61.53;7.78;;;11.20;99.90;;;;;;5066033;28;20057;-89
2020/12/14 04:03:45;;;;;;;61.47;8.30;;;11.20;99.90;;;;;;5058356;28;20124;-88
2020/12/14 04:06:29;;;;;;;43.13;7.00;;;11.20;99.90;;;;;;5073010;28;20047;-89
2020/12/14 04:09:04;;;;;;;54.38;7.80;;;11.20;99.90;;;;;;5071105;28;20102;-88
2020/12/14 04:11:40;;;;;;;56.72;7.95;;;11.20;99.90;;;;;;5073417;28;20362;-89
2020/12/14 04:14:12;;;;;;;51.90;7.68;;;11.20;99.90;;;;;;5057250;28;20139;-89
2020/12/14 04:16:46;;;;;;;56.08;8.93;;;11.30;99.90;;;;;;5065426;28;20102;-88
2020/12/14 04:19:23;;;;;;;55.10;8.18;;;11.30;99.90;;;;;;5071365;28;20473;-88
2020/12/14 04:22:07;;;;;;;53.03;7.05;;;11.30;99.90;;;;;;5062899;28;20053;-89
2020/12/14 04:24:39;;;;;;;70.10;8.32;;;11.30;99.90;;;;;;5071015;28;20055;-88
2020/12/14 04:27:14;;;;;;;61.90;7.60;;;11.40;99.90;;;;;;5056771;28;20089;-89
2020/12/14 04:29:51;;;;;;;51.50;7.13;;;11.30;99.90;;;;;;5056199;28;20053;-89
2020/12/14 04:32:26;;;;;;;62.15;8.00;;;11.30;99.90;;;;;;5071278;28;20474;-89
2020/12/14 04:35:01;;;;;;;54.78;6.90;;;11.30;99.90;;;;;;5061639;28;20131;-89
2020/12/14 04:37:37;;;;;;;65.93;8.95;;;11.30;99.90;;;;;;5066508;28;20122;-88
2020/12/14 04:40:12;;;;;;;63.17;8.82;;;11.30;99.90;;;;;;5066272;28;20404;-89
2020/12/14 04:42:51;;;;;;;60.90;9.20;;;11.20;99.90;;;;;;5069809;28;20123;-89
2020/12/14 04:45:28;;;;;;;60.42;7.85;;;11.30;99.90;;;;;;5058535;28;20049;-89
2020/12/14 04:48:00;;;;;;;61.90;8.80;;;11.20;99.90;;;;;;5072429;28;20422;-88
2020/12/14 04:50:39;;;;;;;62.45;8.05;;;11.20;99.90;;;;;;5056865;28;20072;-89
2020/12/14 04:53:12;;;;;;;55.80;7.55;;;11.20;99.90;;;;;;5059113;28;20121;-89
2020/12/14 04:55:44;;;;;;;47.58;7.65;;;11.20;99.90;;;;;;5059779;28;20066;-88
2020/12/14 04:58:24;;;;;;;57.80;6.82;;;11.30;99.90;;;;;;5071355;28;20056;-88
2020/12/14 05:00:57;;;;;;;63.25;8.73;;;11.30;99.90;;;;;;5068921;28;20056;-88
2020/12/14 05:03:33;;;;;;;62.60;8.70;;;11.30;99.90;;;;;;5042799;28;20087;-88
2020/12/14 05:06:08;;;;;;;69.22;8.38;;;11.30;99.90;;;;;;5057900;28;20915;-89
2020/12/14 05:08:42;;;;;;;49.40;7.22;;;11.40;99.90;;;;;;5059516;28;20123;-89
2020/12/14 05:11:16;;;;;;;61.03;8.40;;;11.40;99.90;;;;;;5059117;28;20052;-88
2020/12/14 05:13:56;;;;;;;65.10;8.93;;;11.40;99.90;;;;;;5054124;28;20052;-88
2020/12/14 05:16:35;;;;;;;62.95;7.93;;;11.40;99.90;;;;;;5056362;28;20120;-88
2020/12/14 05:19:25;;;;;;;67.93;8.95;;;11.40;99.90;;;;;;5057338;28;20140;-88
2020/12/14 05:22:00;;;;;;;67.05;8.25;;;11.40;99.90;;;;;;5070182;28;20040;-88
2020/12/14 05:24:38;;;;;;;65.80;8.73;;;11.40;99.90;;;;;;5043998;28;20053;-88
2020/12/14 05:27:27;;;;;;;58.47;7.00;;;11.30;99.90;;;;;;5055673;28;20506;-88
2020/12/14 05:30:00;;;;;;;50.17;7.45;;;11.30;99.90;;;;;;5070402;28;20106;-89
2020/12/14 05:32:32;;;;;;;56.00;8.05;;;11.40;99.90;;;;;;5059999;28;20048;-88
2020/12/14 05:35:14;;;;;;;47.65;7.50;;;11.30;99.90;;;;;;5070022;28;20057;-87
2020/12/14 05:37:48;;;;;;;49.00;7.65;;;11.30;99.90;;;;;;5060250;28;20069;-88
2020/12/14 05:40:20;;;;;;;55.30;7.03;;;11.20;99.90;;;;;;5058566;28;20060;-88
2020/12/14 05:42:58;;;;;;;51.22;7.90;;;11.20;99.90;;;;;;5067111;28;20049;-88
2020/12/14 05:45:34;;;;;;;63.10;7.73;;;11.20;99.90;;;;;;5056817;28;20551;-88
2020/12/14 05:48:06;;;;;;;46.80;7.43;;;11.20;99.90;;;;;;5067539;28;20049;-88
2020/12/14 05:50:50;;;;;;;49.78;6.82;;;11.20;99.90;;;;;;5054066;28;20076;-88
2020/12/14 05:54:05;;;;;;;45.15;6.90;;;11.10;99.90;;;;;;5056615;28;20060;-88
2020/12/14 05:56:48;;;;;;;50.88;6.15;;;11.10;99.90;;;;;;4991295;28;20058;-87
2020/12/14 05:59:20;;;;;;;45.20;6.45;;;11.10;99.90;;;;;;4990762;28;20050;-88
2020/12/14 06:01:53;;;;;;;49.58;6.35;;;11.10;99.90;;;;;;4956431;28;20055;-88
2020/12/14 06:04:28;;;;;;;43.65;7.82;;;11.00;99.90;;;;;;4955452;28;20055;-89
2020/12/14 06:07:02;;;;;;;57.75;8.02;;;11.00;99.90;;;;;;4969044;28;20062;-88
2020/12/14 06:09:37;;;;;;;46.05;6.32;;;11.00;99.90;;;;;;4929424;28;20525;-88
2020/12/14 06:12:13;;;;;;;53.10;6.65;;;11.00;99.90;;;;;;4942181;28;20055;-89
2020/12/14 06:14:45;;;;;;;40.58;5.88;;;11.00;99.90;;;;;;4959670;28;20066;-88
2020/12/14 06:17:19;;;;;;;48.58;5.82;;;11.00;99.90;;;;;;4959748;28;20047;-88
2020/12/14 06:19:55;;;;;;;53.67;7.10;;;10.90;99.90;;;;;;4946934;29;20055;-90
2020/12/14 06:22:36;;;;;;;35.30;5.97;;;10.90;99.90;;;;;;4955173;28;20050;-89
2020/12/14 06:25:23;;;;;;;40.40;5.85;;;10.90;99.90;;;;;;4948404;28;20074;-88
2020/12/14 06:27:57;;;;;;;46.53;5.18;;;10.90;99.90;;;;;;4969839;28;20047;-87
2020/12/14 06:30:34;;;;;;;42.20;6.00;;;10.90;99.90;;;;;;4941502;28;20051;-87
2020/12/14 06:33:12;;;;;;;47.10;5.57;;;10.90;99.90;;;;;;5059728;28;20048;-88
2020/12/14 06:35:49;;;;;;;42.22;6.22;;;10.90;99.90;;;;;;5066269;28;20110;-87
2020/12/14 06:38:39;;;;;;;49.35;5.57;;;11.00;99.90;;;;;;5057921;28;20052;-88
2020/12/14 06:41:29;;;;;;;52.20;6.03;;;10.90;99.90;;;;;;5045717;28;20087;-90
2020/12/14 06:44:12;;;;;;;40.80;5.90;;;11.00;99.90;;;;;;5036875;28;20076;-88
2020/12/14 06:46:45;;;;;;;50.00;6.38;;;11.00;99.90;;;;;;5036725;28;20041;-87
2020/12/14 06:49:31;;;;;;;50.22;6.00;;;11.00;99.90;;;;;;5032530;28;20049;-90
2020/12/14 06:52:02;;;;;;;41.22;6.47;;;11.10;99.90;;;;;;5028683;28;20128;-88
2020/12/14 06:54:45;;;;;;;44.10;5.97;;;11.10;99.90;;;;;;5039642;28;20057;-87
2020/12/14 06:57:35;;;;;;;44.63;5.88;;;11.10;99.90;;;;;;5036987;28;20049;-88
2020/12/14 07:00:17;;;;;;;46.50;6.88;;;11.10;99.90;;;;;;5039773;28;20064;-88
2020/12/14 07:02:49;;;;;;;45.90;5.95;;;11.20;99.90;;;;;;5033795;28;20096;-88
2020/12/14 07:05:30;;;;;;;51.08;7.15;;;11.20;99.90;;;;;;5036792;28;20056;-87
2020/12/14 07:08:03;;;;;;;50.67;5.97;;;11.20;99.90;;;;;;5037945;28;20053;-88
2020/12/14 07:10:35;;;;;;;42.95;5.80;;;11.20;99.90;;;;;;5037400;28;20103;-88
2020/12/14 07:13:09;;;;;;;45.90;6.38;;;11.20;99.90;;;;;;5035355;28;20041;-88
2020/12/14 07:15:38;;;;;;;56.53;6.82;;;11.20;99.90;;;;;;5038414;28;20065;-88
2020/12/14 07:18:13;;;;;;;56.00;7.13;;;11.20;99.90;;;;;;5036549;28;20415;-88
2020/12/14 07:20:53;;;;;;;46.88;5.80;;;11.20;99.90;;;;;;5038471;28;20422;-88
2020/12/14 07:23:24;;;;;;;60.33;6.72;;;11.20;99.90;;;;;;5032100;28;20059;-88
2020/12/14 07:25:56;;;;;;;54.45;6.25;;;11.20;99.90;;;;;;5029940;28;20056;-88
2020/12/14 07:28:53;;;;;;;54.60;7.03;;;11.20;99.90;;;;;;5027185;28;20064;-88
2020/12/14 07:31:27;;;;;;;48.33;6.45;;;11.30;99.90;;;;;;5022936;28;20087;-87
2020/12/14 07:34:00;;;;;;;48.15;5.80;;;11.30;99.90;;;;;;5034118;28;20107;-87
2020/12/14 07:36:32;;;;;;;53.38;6.35;;;11.30;99.90;;;;;;5024861;28;20072;-87
2020/12/14 07:39:02;;;;;;;39.67;5.57;;;11.30;99.90;;;;;;5027176;28;20403;-87
2020/12/14 07:41:35;;;;;;;43.50;6.13;;;11.40;99.90;;;;;;5062485;28;20063;-87
2020/12/14 07:44:08;;;;;;;34.13;5.43;;;11.40;99.90;;;;;;5058507;28;20159;-89
2020/12/14 07:46:44;;;;;;;60.17;6.50;;;11.40;99.90;;;;;;5062600;28;20068;-89
2020/12/14 07:49:23;;;;;;;36.15;5.07;;;11.40;99.90;;;;;;5067665;28;20135;-89
2020/12/14 07:52:02;;;;;;;55.92;6.95;;;11.40;99.90;;;;;;5066591;28;20110;-89
2020/12/14 07:54:36;;;;;;;51.67;6.63;;;11.50;99.90;;;;;;5065647;28;20044;-88
2020/12/14 07:57:17;;;;;;;51.45;6.53;;;11.50;99.90;;;;;;5063144;28;20083;-89
2020/12/14 07:59:53;;;;;;;40.15;6.00;;;11.50;99.90;;;;;;5081502;28;20481;-89
2020/12/14 08:02:30;;;;;;;44.47;5.50;;;11.50;99.90;;;;;;5065444;28;20069;-89
2020/12/14 08:05:21;;;;;;;47.33;5.97;;;11.60;99.90;;;;;;5068107;28;20052;-93
2020/12/14 08:08:12;;;;;;;56.80;6.70;;;11.60;99.90;;;;;;5065434;28;20108;-94
2020/12/14 08:11:01;;;;;;;34.55;5.65;;;11.60;99.90;;;;;;5060995;28;20052;-93
2020/12/14 08:13:42;;;;;;;45.90;5.93;;;11.70;99.90;;;;;;5067422;28;20051;-90
2020/12/14 08:16:24;;;;;;;49.35;6.13;;;11.70;99.90;;;;;;5062742;28;20036;-91
2020/12/14 08:19:16;;;;;;;54.92;7.20;;;11.70;99.90;;;;;;5060370;28;20099;-92
2020/12/14 08:22:09;;;;;;;53.92;6.43;;;11.80;99.90;;;;;;5052104;28;20095;-91
2020/12/14 08:25:00;;;;;;;45.72;6.18;;;11.80;99.90;;;;;;5070203;28;20052;-91
2020/12/14 08:27:58;;;;;;;36.42;6.32;;;11.90;99.90;;;;;;5068951;28;20464;-90
2020/12/14 08:30:44;;;;;;;44.85;6.43;;;11.90;99.90;;;;;;5068233;28;20060;-90
2020/12/14 08:33:35;;;;;;;44.45;6.03;;;11.90;99.90;;;;;;5068367;28;20048;-90
2020/12/14 08:36:19;;;;;;;;;;;12.00;99.90;;;;;;5070754;28;20122;-91
2020/12/14 08:39:19;;;;;;;48.00;6.60;;;12.00;99.90;;;;;;5086517;28;20050;-91
2020/12/14 08:42:10;;;;;;;55.90;6.85;;;12.00;99.90;;;;;;5045564;28;20056;-90
2020/12/14 08:45:05;;;;;;;45.78;6.15;;;12.10;99.90;;;;;;5029864;28;20064;-91
2020/12/14 08:47:42;;;;;;;46.55;6.45;;;12.10;99.90;;;;;;5030782;28;20080;-91
2020/12/14 08:50:26;;;;;;;42.33;6.45;;;12.20;99.90;;;;;;5033357;28;20102;-90
2020/12/14 08:53:09;;;;;;;52.95;6.82;;;12.20;99.90;;;;;;5031156;28;20479;-91
2020/12/14 08:56:03;;;;;;;44.30;7.38;;;12.30;99.90;;;;;;5025857;28;20072;-90
2020/12/14 08:59:04;;;;;;;52.88;7.28;;;12.40;99.90;;;;;;5036218;28;20148;-91
2020/12/14 09:02:10;;;;;;;47.45;6.65;;;12.40;99.90;;;;;;5027784;28;20056;-91
2020/12/14 09:04:59;;;;;;;50.60;6.18;;;12.50;99.90;;;;;;5033130;28;20045;-91
2020/12/14 09:07:46;;;;;;;42.08;6.45;;;12.50;99.90;;;;;;5029271;28;20112;-91
2020/12/14 09:10:38;;;;;;;49.25;6.80;;;12.60;99.90;;;;;;5028782;28;20057;-91
2020/12/14 09:13:35;;;;;;;48.47;6.90;;;12.60;99.90;;;;;;5035022;28;20048;-91
2020/12/14 09:16:26;;;;;;;43.58;6.68;;;12.70;99.90;;;;;;5027140;28;20107;-91
2020/12/14 09:19:12;;;;;;;52.00;7.50;;;12.70;99.90;;;;;;5034151;28;20112;-91
2020/12/14 09:22:00;;;;;;;54.20;6.97;;;12.70;99.90;;;;;;5029132;28;20049;-91
2020/12/14 09:24:45;;;;;;;43.35;6.28;;;12.70;99.90;;;;;;5033184;28;20436;-91
2020/12/14 09:27:30;;;;;;;46.10;6.93;;;12.70;99.90;;;;;;5028262;28;20068;-91
2020/12/14 09:30:16;;;;;;;49.13;6.93;;;12.70;99.90;;;;;;5028795;28;20063;-91
2020/12/14 09:33:04;;;;;;;64.93;7.85;;;12.70;99.90;;;;;;5037481;28;20120;-91
2020/12/14 09:35:53;;;;;;;52.55;7.68;;;12.70;99.90;;;;;;5024632;28;20049;-91
2020/12/14 09:38:39;;;;;;;46.15;7.18;;;12.70;99.90;;;;;;5037920;28;20044;-91
2020/12/14 09:41:32;;;;;;;67.45;8.43;;;12.70;99.90;;;;;;5058921;28;20048;-90
2020/12/14 09:44:16;;;;;;;49.00;8.43;;;12.70;99.90;;;;;;5085335;28;20413;-90
2020/12/14 09:47:06;;;;;;;52.65;7.60;;;12.70;99.90;;;;;;5068768;28;20041;-91
2020/12/14 09:49:47;;;;;;;42.63;6.50;;;12.70;99.90;;;;;;5066175;28;20056;-90
2020/12/14 09:52:32;;;;;;;41.92;6.03;;;12.60;99.90;;;;;;5052841;28;23293;-90
2020/12/14 09:55:14;;;;;;;24.00;4.18;;;12.50;99.90;;;;;;5068650;28;20060;-90
2020/12/14 09:57:57;;;;;;;22.02;4.35;;;12.30;99.90;;;;;;5070242;28;20048;-90
2020/12/14 10:00:37;;;;;;;26.50;4.30;;;12.30;99.90;;;;;;5058822;28;20091;-90
2020/12/14 10:03:19;;;;;;;19.55;3.08;;;12.20;99.90;;;;;;5071513;28;20109;-90
2020/12/14 10:06:00;;;;;;;19.92;3.60;;;12.10;99.90;;;;;;5061668;28;20049;-90
2020/12/14 10:08:57;;;;;;;23.92;4.00;;;12.10;99.90;;;;;;5058563;28;20494;-90
2020/12/14 10:11:36;;;;;;;23.60;3.50;;;12.00;99.90;;;;;;5060419;28;20059;-90
2020/12/14 10:14:22;;;;;;;22.92;3.88;;;11.90;99.90;;;;;;5069909;28;20045;-90
2020/12/14 10:17:03;;;;;;;29.95;4.28;;;11.90;99.90;;;;;;5067244;28;20056;-90
2020/12/14 10:19:47;;;;;;;35.20;4.25;;;11.90;99.90;;;;;;5062257;28;20505;-90
2020/12/14 10:22:31;;;;;;;31.83;4.47;;;11.90;99.90;;;;;;5068323;28;20106;-90
2020/12/14 10:25:20;;;;;;;34.17;4.13;;;11.90;99.90;;;;;;5065309;28;20673;-90
2020/12/14 10:28:03;;;;;;;34.72;5.10;;;11.90;99.90;;;;;;5067674;28;20048;-90
2020/12/14 10:30:54;;;;;;;37.97;5.32;;;11.90;99.90;;;;;;5086301;28;20064;-90
2020/12/14 10:33:37;;;;;;;46.28;6.13;;;11.90;99.90;;;;;;5065848;28;20056;-90
2020/12/14 10:36:23;;;;;;;36.20;4.68;;;11.90;99.90;;;;;;5070919;28;20052;-90
2020/12/14 10:39:01;;;;;;;34.85;5.35;;;11.90;99.90;;;;;;5063593;28;20471;-89
2020/12/14 10:41:41;;;;;;;24.55;3.55;;;11.90;99.90;;;;;;5077368;28;20067;-89
2020/12/14 10:44:33;;;;;;;19.52;3.40;;;11.90;99.90;;;;;;5063815;28;20051;-90
2020/12/14 10:47:16;;;;;;;25.88;3.53;;;11.80;99.90;;;;;;5064990;28;20056;-89
2020/12/14 10:49:54;;;;;;;25.65;2.95;;;11.80;99.90;;;;;;5066806;28;20115;-90
2020/12/14 10:52:36;;;;;;;29.15;4.00;;;11.70;99.90;;;;;;5066069;28;20078;-89
2020/12/14 10:55:18;;;;;;;20.60;3.15;;;11.60;99.90;;;;;;5073108;28;20059;-90
2020/12/14 10:58:01;;;;;;;11.30;2.50;;;11.60;99.90;;;;;;5065186;28;20049;-89
2020/12/14 11:00:40;;;;;;;16.05;2.20;;;11.60;99.90;;;;;;5069355;28;20040;-89
2020/12/14 11:03:18;;;;;;;11.85;1.73;;;11.50;99.90;;;;;;5059065;28;20178;-89
2020/12/14 11:06:00;;;;;;;14.18;2.22;;;11.40;99.90;;;;;;5072265;28;20161;-90
2020/12/14 11:08:38;;;;;;;17.02;2.28;;;11.40;99.90;;;;;;5060527;28;20103;-89
2020/12/14 11:11:17;;;;;;;18.52;2.90;;;11.40;99.90;;;;;;5067688;28;20056;-90
2020/12/14 11:13:54;;;;;;;9.25;1.73;;;11.40;99.90;;;;;;5066131;28;20048;-89
2020/12/14 11:16:28;;;;;;;11.35;1.98;;;11.40;99.90;;;;;;5064414;28;20103;-90
2020/12/14 11:19:04;;;;;;;7.28;1.42;;;11.40;99.90;;;;;;5061910;28;20063;-90
2020/12/14 11:21:48;;;;;;;11.90;1.70;;;11.40;99.90;;;;;;5063630;28;22637;-89
2020/12/14 11:24:40;;;;;;;9.30;1.58;;;11.40;99.90;;;;;;5072173;28;20064;-88
2020/12/14 11:27:21;;;;;;;8.73;1.40;;;11.40;99.90;;;;;;5067549;28;20041;-89
2020/12/14 11:29:53;;;;;;;8.20;1.40;;;11.40;99.90;;;;;;5062864;28;20044;-88
2020/12/14 11:32:23;;;;;;;11.23;2.13;;;11.40;99.90;;;;;;5059855;28;20048;-88
2020/12/14 11:34:56;;;;;;;9.82;2.30;;;11.40;99.90;;;;;;5063359;28;20052;-88
2020/12/14 11:37:29;;;;;;;13.48;2.53;;;11.50;99.90;;;;;;5064610;28;20045;-89
2020/12/14 11:40:07;;;;;;;16.17;3.05;;;11.60;99.90;;;;;;5065726;28;20052;-88
2020/12/14 11:42:43;;;;;;;13.75;3.10;;;11.60;99.90;;;;;;5062993;28;20056;-89
2020/12/14 11:45:16;;;;;;;18.17;3.65;;;11.70;99.90;;;;;;5064518;28;20049;-88
2020/12/14 11:47:51;;;;;;;22.73;3.72;;;11.70;99.90;;;;;;5064845;28;20143;-89
2020/12/14 11:50:27;;;;;;;18.35;2.63;;;11.80;99.90;;;;;;5063043;28;20474;-88
2020/12/14 11:53:00;;;;;;;17.02;3.88;;;11.80;99.90;;;;;;5065154;28;20113;-88
2020/12/14 11:55:41;;;;;;;26.20;4.28;;;11.80;99.90;;;;;;5062058;28;20053;-89
2020/12/14 11:58:17;;;;;;;23.33;2.70;;;11.90;99.90;;;;;;5067076;28;20048;-88
2020/12/14 12:00:51;;;;;;;19.95;2.80;;;11.90;99.90;;;;;;5061923;28;20060;-89
2020/12/14 12:03:24;;;;;;;17.17;2.45;;;11.80;99.90;;;;;;5054015;28;20060;-88
2020/12/14 12:06:01;;;;;;;21.05;2.55;;;11.80;99.90;;;;;;5059390;28;20060;-89
2020/12/14 12:08:32;;;;;;;13.75;2.00;;;11.90;99.90;;;;;;5066761;28;20048;-89
2020/12/14 12:11:05;;;;;;;16.80;2.17;;;11.90;99.90;;;;;;5061104;28;20087;-89
2020/12/14 12:13:41;;;;;;;17.90;2.47;;;11.90;99.90;;;;;;5063093;28;20080;-89
2020/12/14 12:16:19;;;;;;;16.25;3.00;;;11.80;99.90;;;;;;5066562;28;20063;-89
2020/12/14 12:19:01;;;;;;;16.75;2.67;;;11.80;99.90;;;;;;5061459;28;20391;-88
2020/12/14 12:21:30;;;;;;;14.52;2.75;;;11.80;99.90;;;;;;5084146;28;20099;-88
2020/12/14 12:24:01;;;;;;;18.88;3.00;;;11.70;99.90;;;;;;5055414;28;20454;-89
2020/12/14 12:26:34;;;;;;;20.08;3.53;;;11.70;99.90;;;;;;5061919;28;20056;-89
2020/12/14 12:29:11;;;;;;;25.42;3.70;;;11.60;99.90;;;;;;5068003;28;20402;-89
2020/12/14 12:31:56;;;;;;;17.02;2.72;;;11.60;99.90;;;;;;5066094;28;20127;-90
2020/12/14 12:34:35;;;;;;;14.98;3.35;;;11.50;99.90;;;;;;5059325;28;20045;-89
2020/12/14 12:37:14;;;;;;;13.02;2.17;;;11.50;99.90;;;;;;5063863;28;20049;-88
2020/12/14 12:39:49;;;;;;;9.40;1.80;;;11.40;99.90;;;;;;5064220;28;20053;-89
2020/12/14 12:42:19;;;;;;;8.00;1.88;;;11.40;99.90;;;;;;5029739;28;20076;-89
2020/12/14 12:44:58;;;;;;;8.38;1.48;;;11.40;99.90;;;;;;5028062;28;20429;-88
2020/12/14 12:47:32;;;;;;;7.53;1.40;;;11.30;99.90;;;;;;5028246;28;20119;-90
2020/12/14 12:50:11;;;;;;;9.93;1.52;;;11.30;99.90;;;;;;5029907;28;20055;-89
2020/12/14 12:52:46;;;;;;;10.45;1.55;;;11.20;99.90;;;;;;5022255;28;20080;-89
2020/12/14 12:55:17;;;;;;;8.10;1.40;;;11.20;99.90;;;;;;5022441;28;20049;-89
2020/12/14 12:58:00;;;;;;;6.88;1.55;;;11.20;99.90;;;;;;5025772;28;20049;-91
2020/12/14 13:00:36;;;;;;;5.68;1.20;;;11.20;99.90;;;;;;5026311;28;20049;-88
2020/12/14 13:03:09;;;;;;;6.75;1.75;;;11.20;99.90;;;;;;5025273;28;20477;-88
2020/12/14 13:05:44;;;;;;;10.80;1.90;;;11.20;99.90;;;;;;5027635;28;20052;-88
2020/12/14 13:08:20;;;;;;;10.20;1.40;;;11.10;99.90;;;;;;5027901;28;20061;-88
2020/12/14 13:10:52;;;;;;;7.22;1.33;;;11.10;99.90;;;;;;5022191;28;20509;-88
2020/12/14 13:13:24;;;;;;;11.52;1.30;;;11.10;99.90;;;;;;5029496;28;20080;-88
2020/12/14 13:15:59;;;;;;;8.82;1.77;;;11.00;99.90;;;;;;5025057;28;20583;-88
2020/12/14 13:18:30;;;;;;;11.10;1.58;;;11.00;99.90;;;;;;5026386;28;20799;-89
2020/12/14 13:21:04;;;;;;;13.70;2.35;;;11.00;99.90;;;;;;5028714;28;20057;-88
2020/12/14 13:23:38;;;;;;;9.70;1.75;;;11.00;99.90;;;;;;5026697;28;20061;-88
2020/12/14 13:26:12;;;;;;;14.40;2.13;;;11.00;99.90;;;;;;5025044;28;20474;-88
2020/12/14 13:28:45;;;;;;;13.57;2.40;;;10.90;99.90;;;;;;5027695;28;20383;-89
2020/12/14 13:31:24;;;;;;;17.30;2.60;;;10.90;99.90;;;;;;5029828;28;20045;-88
2020/12/14 13:33:56;;;;;;;19.42;3.08;;;10.90;99.90;;;;;;5027115;28;20053;-88